createdAt,value
2022-10-05T00:01:35.287Z,6.88
2022-10-05T00:04:15.226Z,7.07
2022-10-05T00:06:57.987Z,6.63
2022-10-05T00:09:25.402Z,6.90
2022-10-05T00:11:52.441Z,6.63
2022-10-05T00:14:31.600Z,6.78
2022-10-05T00:16:58.933Z,6.72
2022-10-05T00:19:34.841Z,6.97
2022-10-05T00:22:32.789Z,7.32
2022-10-05T00:25:11.323Z,7.15
2022-10-05T00:27:38.934Z,7.05
2022-10-05T00:30:19.656Z,7.18
2022-10-05T00:32:47.603Z,7.32
2022-10-05T00:35:18.280Z,7.07
2022-10-05T00:37:53.390Z,6.85
2022-10-05T00:40:45.563Z,6.75
2022-10-05T00:43:24.576Z,7.13
2022-10-05T00:46:06.195Z,7.10
2022-10-05T00:48:44.163Z,7.25
2022-10-05T00:51:37.875Z,6.55
2022-10-05T00:54:33.236Z,7.45
2022-10-05T00:57:21.213Z,7.18
2022-10-05T01:00:08.607Z,7.78
2022-10-05T01:02:51.961Z,7.13
2022-10-05T01:05:51.444Z,7.07
2022-10-05T01:08:40.414Z,7.18
2022-10-05T01:11:22.658Z,7.70
2022-10-05T01:14:20.711Z,7.60
2022-10-05T01:16:59.365Z,7.05
2022-10-05T01:20:03.627Z,7.88
2022-10-05T01:23:34.204Z,7.25
2022-10-05T01:26:38.401Z,7.40
2022-10-05T01:29:37.792Z,7.13
2022-10-05T01:32:51.420Z,7.43
2022-10-05T01:35:36.454Z,7.80
2022-10-05T01:38:24.698Z,7.43
2022-10-05T01:41:19.730Z,7.97
2022-10-05T01:43:58.331Z,7.47
2022-10-05T01:46:38.299Z,7.45
2022-10-05T01:49:43.106Z,7.57
2022-10-05T01:53:06.735Z,7.88
2022-10-05T01:56:01.681Z,7.40
2022-10-05T02:01:35.945Z,7.18
2022-10-05T02:04:30.983Z,7.28
2022-10-05T02:07:14.615Z,7.10
2022-10-05T02:10:00.356Z,7.15
2022-10-05T02:12:36.407Z,7.65
2022-10-05T02:15:22.649Z,7.10
2022-10-05T02:18:12.304Z,6.97
2022-10-05T02:20:43.503Z,7.60
2022-10-05T02:23:23.170Z,7.22
2022-10-05T02:25:55.113Z,7.05
2022-10-05T02:28:38.299Z,7.10
2022-10-05T02:31:14.197Z,7.35
2022-10-05T02:33:41.437Z,7.05
2022-10-05T02:36:19.735Z,7.38
2022-10-05T02:39:25.125Z,7.85
2022-10-05T02:42:27.536Z,7.43
2022-10-05T02:45:30.140Z,7.60
2022-10-05T02:48:16.772Z,6.85
2022-10-05T02:51:02.917Z,7.20
2022-10-05T02:53:59.112Z,7.13
2022-10-05T02:56:36.315Z,7.72
2022-10-05T02:59:09.295Z,7.40
2022-10-05T03:02:12.923Z,7.53
2022-10-05T03:05:13.072Z,7.10
2022-10-05T03:08:13.119Z,7.47
2022-10-05T03:11:03.252Z,7.35
2022-10-05T03:13:48.842Z,7.22
2022-10-05T03:17:03.340Z,7.60
2022-10-05T03:20:10.874Z,6.97
2022-10-05T03:22:50.944Z,7.65
2022-10-05T03:25:52.733Z,7.53
2022-10-05T03:28:49.192Z,8.00
2022-10-05T03:31:56.476Z,7.57
2022-10-05T03:34:37.640Z,7.07
2022-10-05T03:37:20.672Z,7.13
2022-10-05T03:40:10.015Z,7.25
2022-10-05T03:42:48.044Z,7.68
2022-10-05T03:45:37.818Z,7.32
2022-10-05T03:48:28.583Z,7.25
2022-10-05T03:51:10.871Z,6.75
2022-10-05T03:53:47.311Z,7.60
2022-10-05T03:56:29.935Z,7.78
2022-10-05T03:59:33.036Z,6.93
2022-10-05T04:04:43.552Z,7.75
2022-10-05T04:07:28.279Z,7.35
2022-10-05T04:12:51.161Z,7.15
2022-10-05T04:15:31.539Z,7.38
2022-10-05T04:18:13.484Z,7.43
2022-10-05T04:20:52.113Z,7.57
2022-10-05T04:23:22.228Z,6.93
2022-10-05T04:25:56.411Z,7.85
2022-10-05T04:28:56.340Z,7.13
2022-10-05T04:31:52.359Z,7.55
2022-10-05T04:34:36.856Z,7.40
2022-10-05T04:37:22.116Z,8.18
2022-10-05T04:40:10.763Z,7.30
2022-10-05T04:43:03.858Z,7.20
2022-10-05T04:46:05.464Z,6.95
2022-10-05T04:48:57.716Z,8.05
2022-10-05T04:51:54.724Z,7.15
2022-10-05T04:54:53.374Z,7.78
2022-10-05T04:57:44.904Z,6.82
2022-10-05T05:00:31.418Z,7.97
2022-10-05T05:03:29.747Z,7.07
2022-10-05T05:06:18.998Z,7.68
2022-10-05T05:09:27.975Z,7.68
2022-10-05T05:12:10.760Z,8.00
2022-10-05T05:14:53.749Z,7.90
2022-10-05T05:17:51.218Z,7.22
2022-10-05T05:20:45.243Z,7.78
2022-10-05T05:23:35.997Z,6.97
2022-10-05T05:26:27.821Z,6.97
2022-10-05T05:29:30.620Z,7.63
2022-10-05T05:32:35.071Z,7.55
2022-10-05T05:35:23.864Z,7.07
2022-10-05T05:38:27.243Z,7.00
2022-10-05T05:41:13.827Z,7.35
2022-10-05T05:43:56.481Z,7.25
2022-10-05T05:47:02.208Z,7.30
2022-10-05T05:50:10.667Z,7.68
2022-10-05T05:52:47.287Z,6.38
2022-10-05T05:55:34.273Z,6.70
2022-10-05T05:58:28.116Z,7.05
2022-10-05T06:01:04.363Z,7.35
2022-10-05T06:03:44.622Z,6.88
2022-10-05T06:06:18.148Z,6.97
2022-10-05T06:09:04.891Z,7.75
2022-10-05T06:12:00.769Z,6.88
2022-10-05T06:14:48.043Z,6.88
2022-10-05T06:17:29.027Z,7.35
2022-10-05T06:20:05.293Z,6.88
2022-10-05T06:22:42.488Z,6.85
2022-10-05T06:25:12.689Z,6.18
2022-10-05T06:28:11.206Z,6.03
2022-10-05T06:31:03.132Z,5.63
2022-10-05T06:33:53.920Z,5.45
2022-10-05T06:36:40.691Z,5.72
2022-10-05T06:39:29.011Z,6.45
2022-10-05T06:42:31.761Z,5.60
2022-10-05T06:45:42.314Z,4.63
2022-10-05T06:48:41.660Z,5.28
2022-10-05T06:51:59.859Z,5.30
2022-10-05T06:54:49.344Z,5.70
2022-10-05T06:58:23.076Z,5.68
2022-10-05T07:01:11.950Z,5.28
2022-10-05T07:04:00.105Z,5.05
2022-10-05T07:06:43.204Z,5.47
2022-10-05T07:09:41.353Z,4.95
2022-10-05T07:12:48.548Z,4.65
2022-10-05T07:15:42.577Z,5.18
2022-10-05T07:18:29.604Z,5.03
2022-10-05T07:21:07.449Z,6.00
2022-10-05T07:23:59.699Z,5.80
2022-10-05T07:26:46.117Z,5.13
2022-10-05T07:29:46.764Z,5.32
2022-10-05T07:32:34.663Z,5.25
2022-10-05T07:35:54.268Z,5.05
2022-10-05T07:39:18.543Z,5.60
2022-10-05T07:41:57.069Z,5.18
2022-10-05T07:44:37.408Z,4.80
2022-10-05T07:47:38.544Z,5.10
2022-10-05T07:50:39.537Z,4.75
2022-10-05T07:53:18.873Z,4.20
2022-10-05T07:55:55.173Z,5.50
2022-10-05T07:58:42.031Z,4.28
2022-10-05T08:01:29.668Z,5.20
2022-10-05T08:04:21.232Z,4.38
2022-10-05T08:07:03.073Z,4.28
2022-10-05T08:10:11.720Z,4.22
2022-10-05T08:13:16.335Z,3.90
2022-10-05T08:15:51.987Z,4.03
2022-10-05T08:18:56.720Z,4.00
2022-10-05T08:21:46.476Z,4.35
2022-10-05T08:24:40.791Z,3.90
2022-10-05T08:27:33.574Z,4.03
2022-10-05T08:30:13.499Z,4.22
2022-10-05T08:33:16.915Z,3.55
2022-10-05T08:35:50.089Z,4.10
2022-10-05T08:38:31.682Z,3.70
2022-10-05T08:41:47.205Z,3.50
2022-10-05T08:45:14.581Z,4.20
2022-10-05T08:48:04.488Z,3.53
2022-10-05T08:50:43.487Z,3.50
2022-10-05T08:53:26.873Z,3.55
2022-10-05T08:56:34.117Z,3.78
2022-10-05T08:59:58.662Z,3.80
2022-10-05T09:02:49.679Z,3.75
2022-10-05T09:05:51.624Z,3.70
2022-10-05T09:09:10.227Z,3.45
2022-10-05T09:12:20.272Z,3.45
2022-10-05T09:15:25.789Z,3.72
2022-10-05T09:18:27.743Z,3.78
2022-10-05T09:21:12.783Z,3.20
2022-10-05T09:23:43.332Z,2.97
2022-10-05T09:26:45.154Z,3.58
2022-10-05T09:29:42.630Z,4.05
2022-10-05T09:32:57.738Z,3.33
2022-10-05T09:36:06.727Z,3.03
2022-10-05T09:39:15.197Z,3.20
2022-10-05T09:42:38.317Z,3.30
2022-10-05T09:45:49.085Z,3.55
2022-10-05T09:48:39.196Z,3.08
2022-10-05T09:51:56.254Z,3.20
2022-10-05T09:55:20.823Z,2.80
2022-10-05T09:58:02.495Z,2.80
2022-10-05T10:00:38.241Z,2.47
2022-10-05T10:03:27.254Z,2.75
2022-10-05T10:06:22.286Z,2.85
2022-10-05T10:09:26.935Z,2.90
2022-10-05T10:12:27.287Z,2.42
2022-10-05T10:15:38.045Z,2.47
2022-10-05T10:18:07.959Z,2.53
2022-10-05T10:21:02.692Z,2.10
2022-10-05T10:26:58.396Z,2.33
2022-10-05T10:30:03.739Z,2.72
2022-10-05T10:33:11.876Z,2.83
2022-10-05T10:35:53.602Z,2.80
2022-10-05T10:39:03.583Z,2.20
2022-10-05T10:42:03.467Z,2.10
2022-10-05T10:45:05.280Z,2.20
2022-10-05T10:47:47.956Z,1.90
2022-10-05T10:50:33.699Z,1.90
2022-10-05T10:53:21.846Z,2.10
2022-10-05T10:56:13.264Z,1.67
2022-10-05T10:59:41.457Z,1.95
2022-10-05T11:02:37.677Z,2.05
2022-10-05T11:05:38.585Z,2.20
2022-10-05T11:08:49.628Z,2.28
2022-10-05T11:11:38.231Z,1.98
2022-10-05T11:14:57.320Z,1.55
2022-10-05T11:18:01.595Z,6.10
2022-10-05T11:21:23.955Z,2.40
2022-10-05T11:24:38.983Z,1.70
2022-10-05T11:27:31.350Z,1.80
2022-10-05T11:30:23.062Z,2.15
2022-10-05T11:33:24.333Z,2.35
2022-10-05T11:36:03.466Z,1.70
2022-10-05T11:38:53.091Z,2.20
2022-10-05T11:41:59.328Z,1.75
2022-10-05T11:44:54.116Z,1.60
2022-10-05T11:48:04.695Z,2.10
2022-10-05T11:51:17.864Z,1.63
2022-10-05T11:54:19.944Z,1.60
2022-10-05T11:57:05.991Z,2.38
2022-10-05T11:59:54.664Z,2.20
2022-10-05T12:02:53.318Z,2.30
2022-10-05T12:05:49.846Z,1.70
2022-10-05T12:08:38.081Z,3.03
2022-10-05T12:11:05.029Z,1.90
2022-10-05T12:13:51.844Z,2.20
2022-10-05T12:16:39.400Z,1.90
2022-10-05T12:19:11.978Z,1.70
2022-10-05T12:22:33.756Z,2.78
2022-10-05T12:25:06.971Z,2.30
2022-10-05T12:27:40.762Z,2.03
2022-10-05T12:30:29.494Z,1.60
2022-10-05T12:33:06.775Z,1.45
2022-10-05T12:35:53.731Z,1.40
2022-10-05T12:38:32.938Z,1.50
2022-10-05T12:41:40.415Z,1.90
2022-10-05T12:44:35.408Z,1.30
2022-10-05T12:47:27.427Z,1.15
2022-10-05T12:50:14.545Z,1.30
2022-10-05T12:53:22.546Z,1.70
2022-10-05T12:57:05.183Z,1.20
2022-10-05T12:59:53.532Z,1.27
2022-10-05T13:03:02.336Z,1.30
2022-10-05T13:06:09.335Z,1.23
2022-10-05T13:09:00.252Z,1.23
2022-10-05T13:12:00.463Z,1.30
2022-10-05T13:15:23.877Z,1.10
2022-10-05T13:18:35.911Z,1.80
2022-10-05T13:21:19.512Z,1.48
2022-10-05T13:23:51.673Z,1.00
2022-10-05T13:26:36.022Z,1.38
2022-10-05T13:29:18.584Z,1.10
2022-10-05T13:31:54.286Z,1.15
2022-10-05T13:34:30.792Z,1.40
2022-10-05T13:37:27.716Z,1.13
2022-10-05T13:40:06.750Z,1.30
2022-10-05T13:43:23.191Z,1.35
2022-10-05T13:46:05.485Z,1.25
2022-10-05T13:49:19.119Z,1.25
2022-10-05T13:52:15.229Z,0.95
2022-10-05T13:54:54.542Z,1.08
2022-10-05T13:58:03.380Z,1.52
2022-10-05T14:00:40.020Z,1.08
2022-10-05T14:03:27.579Z,1.20
2022-10-05T14:05:58.152Z,1.40
2022-10-05T14:08:29.846Z,1.20
2022-10-05T14:10:58.142Z,1.05
2022-10-05T14:13:34.172Z,1.02
2022-10-05T14:16:13.402Z,1.17
2022-10-05T14:18:58.671Z,1.13
2022-10-05T14:21:31.548Z,0.90
2022-10-05T14:24:42.363Z,1.20
2022-10-05T14:27:27.464Z,1.02
2022-10-05T14:30:00.471Z,1.40
2022-10-05T14:32:47.484Z,1.50
2022-10-05T14:35:20.678Z,1.30
2022-10-05T14:38:17.581Z,1.73
2022-10-05T14:40:44.688Z,2.53
2022-10-05T14:43:14.823Z,1.33
2022-10-05T14:46:23.236Z,2.15
2022-10-05T14:49:13.589Z,1.08
2022-10-05T14:51:42.764Z,1.00
2022-10-05T14:54:44.037Z,1.27
2022-10-05T14:57:39.240Z,1.10
2022-10-05T15:00:18.724Z,1.30
2022-10-05T15:03:10.693Z,1.20
2022-10-05T15:05:51.119Z,1.25
2022-10-05T15:08:54.455Z,1.40
2022-10-05T15:11:51.536Z,1.15
2022-10-05T15:14:32.056Z,1.55
2022-10-05T15:17:12.664Z,0.88
2022-10-05T15:20:10.500Z,1.25
2022-10-05T15:23:25.628Z,1.30
2022-10-05T15:26:12.179Z,1.10
2022-10-05T15:29:01.164Z,2.08
2022-10-05T15:31:50.051Z,1.48
2022-10-05T15:34:25.744Z,1.20
2022-10-05T15:37:16.910Z,2.20
2022-10-05T15:39:54.772Z,2.20
2022-10-05T15:42:38.354Z,2.00
2022-10-05T15:45:25.793Z,2.97
2022-10-05T15:48:24.433Z,1.75
2022-10-05T15:51:15.345Z,1.42
2022-10-05T15:54:42.452Z,2.42
2022-10-05T15:57:18.172Z,1.20
2022-10-05T16:00:07.612Z,1.05
2022-10-05T16:03:08.679Z,1.15
2022-10-05T16:06:06.387Z,1.13
2022-10-05T16:08:59.747Z,1.60
2022-10-05T16:11:43.320Z,1.88
2022-10-05T16:14:19.901Z,1.13
2022-10-05T16:16:59.378Z,1.20
2022-10-05T16:19:43.527Z,0.98
2022-10-05T16:22:31.936Z,1.00
2022-10-05T16:25:10.955Z,0.98
2022-10-05T16:28:05.314Z,1.13
2022-10-05T16:31:10.863Z,0.90
2022-10-05T16:34:06.499Z,0.90
2022-10-05T16:36:57.908Z,1.20
2022-10-05T16:39:59.921Z,1.65
2022-10-05T16:43:30.164Z,1.30
2022-10-05T16:46:31.602Z,1.10
2022-10-05T16:49:12.753Z,1.50
2022-10-05T16:51:54.212Z,1.10
2022-10-05T16:54:32.568Z,0.93
2022-10-05T16:57:09.858Z,1.15
2022-10-05T17:00:17.697Z,1.00
2022-10-05T17:03:13.731Z,1.00
2022-10-05T17:06:08.447Z,1.00
2022-10-05T17:09:13.245Z,1.00
2022-10-05T17:12:39.456Z,1.00
2022-10-05T17:15:20.422Z,1.50
2022-10-05T17:17:59.463Z,1.20
2022-10-05T17:20:42.445Z,1.10
2022-10-05T17:23:50.978Z,1.30
2022-10-05T17:27:02.468Z,1.40
2022-10-05T17:29:54.904Z,0.95
2022-10-05T17:32:21.787Z,1.30
2022-10-05T17:35:22.114Z,1.50
2022-10-05T17:38:15.664Z,1.25
2022-10-05T17:41:11.667Z,1.20
2022-10-05T17:43:39.212Z,1.33
2022-10-05T17:46:09.897Z,1.10
2022-10-05T17:49:06.993Z,1.40
2022-10-05T17:51:52.993Z,1.33
2022-10-05T17:54:48.503Z,1.10
2022-10-05T17:57:37.117Z,1.10
2022-10-05T18:00:25.939Z,0.90
2022-10-05T18:02:58.384Z,1.00
2022-10-05T18:05:30.652Z,0.93
2022-10-05T18:08:20.214Z,1.15
2022-10-05T18:11:35.298Z,1.10
2022-10-05T18:14:25.153Z,1.30
2022-10-05T18:16:59.728Z,1.10
2022-10-05T18:19:32.199Z,1.17
2022-10-05T18:22:21.736Z,1.23
2022-10-05T18:25:38.247Z,1.23
2022-10-05T18:28:27.080Z,1.38
2022-10-05T18:31:21.158Z,1.20
2022-10-05T18:34:32.139Z,1.30
2022-10-05T18:37:25.755Z,1.20
2022-10-05T18:40:04.791Z,1.75
2022-10-05T18:43:02.667Z,1.30
2022-10-05T18:46:22.356Z,1.42
2022-10-05T18:49:26.936Z,1.58
2022-10-05T18:52:26.703Z,1.35
2022-10-05T18:55:10.403Z,1.60
2022-10-05T18:58:16.890Z,1.60
2022-10-05T19:01:35.118Z,1.45
2022-10-05T19:05:06.327Z,1.58
2022-10-05T19:07:59.112Z,1.60
2022-10-05T19:10:43.410Z,1.50
2022-10-05T19:13:56.210Z,1.30
2022-10-05T19:17:00.522Z,1.33
2022-10-05T19:20:03.054Z,1.35
2022-10-05T19:23:09.435Z,1.50
2022-10-05T19:26:02.559Z,1.90
2022-10-05T19:28:41.016Z,1.60
2022-10-05T19:31:45.421Z,1.60
2022-10-05T19:34:43.740Z,1.70
2022-10-05T19:37:36.043Z,1.60
2022-10-05T19:40:24.711Z,1.92
2022-10-05T19:43:23.566Z,1.70
2022-10-05T19:46:42.137Z,1.48
2022-10-05T19:49:12.866Z,1.75
2022-10-05T19:51:50.869Z,1.70
2022-10-05T19:54:30.800Z,1.98
2022-10-05T19:57:02.488Z,1.52
2022-10-05T19:59:34.162Z,1.52
2022-10-05T20:02:02.394Z,1.67
2022-10-05T20:04:41.532Z,2.05
2022-10-05T20:07:22.833Z,1.52
2022-10-05T20:10:24.594Z,1.98
2022-10-05T20:13:00.160Z,1.70
2022-10-05T20:15:55.310Z,1.65
2022-10-05T20:19:06.847Z,1.88
2022-10-05T20:21:49.170Z,1.73
2022-10-05T20:24:28.810Z,1.90
2022-10-05T20:27:06.545Z,1.60
2022-10-05T20:29:42.483Z,1.63
2022-10-05T20:32:17.662Z,1.80
2022-10-05T20:34:47.946Z,1.40
2022-10-05T20:37:19.258Z,1.50
2022-10-05T20:39:48.117Z,1.20
2022-10-05T20:42:15.075Z,1.00
2022-10-05T20:44:42.383Z,0.90
2022-10-05T20:47:10.290Z,0.95
2022-10-05T20:49:41.137Z,1.00
2022-10-05T20:52:11.417Z,0.80
2022-10-05T20:54:39.392Z,0.95
2022-10-05T20:57:06.621Z,0.63
2022-10-05T20:59:35.413Z,0.80
2022-10-05T21:02:03.798Z,0.60
2022-10-05T21:04:41.015Z,0.90
2022-10-05T21:07:08.887Z,0.93
2022-10-05T21:09:38.451Z,0.82
2022-10-05T21:12:05.699Z,1.20
2022-10-05T21:14:34.425Z,1.00
2022-10-05T21:17:03.641Z,1.10
2022-10-05T21:19:31.070Z,1.30
2022-10-05T21:21:59.230Z,1.38
2022-10-05T21:24:26.275Z,1.40
2022-10-05T21:26:57.591Z,1.17
2022-10-05T21:29:24.885Z,1.38
2022-10-05T21:31:52.379Z,1.52
2022-10-05T21:34:19.446Z,1.95
2022-10-05T21:36:47.034Z,1.98
2022-10-05T21:39:14.167Z,1.77
2022-10-05T21:41:41.187Z,1.83
2022-10-05T21:44:08.116Z,1.60
2022-10-05T21:46:38.007Z,1.70
2022-10-05T21:49:07.572Z,2.28
2022-10-05T21:51:37.032Z,1.90
2022-10-05T21:54:16.776Z,1.65
2022-10-05T21:56:50.679Z,1.10
2022-10-05T21:59:23.386Z,0.60
2022-10-05T22:01:50.386Z,0.70
2022-10-05T22:04:20.297Z,0.50
2022-10-05T22:06:48.969Z,0.85
2022-10-05T22:09:16.068Z,0.65
2022-10-05T22:11:47.789Z,0.88
2022-10-05T22:14:15.561Z,0.95
2022-10-05T22:16:44.622Z,0.52
2022-10-05T22:19:19.138Z,0.90
2022-10-05T22:21:46.223Z,0.90
2022-10-05T22:24:13.456Z,1.08
2022-10-05T22:26:46.894Z,1.00
2022-10-05T22:29:16.183Z,1.17
2022-10-05T22:31:48.586Z,1.05
2022-10-05T22:34:17.842Z,0.82
2022-10-05T22:36:45.835Z,1.05
2022-10-05T22:39:13.556Z,0.90
2022-10-05T22:41:40.517Z,0.98
2022-10-05T22:44:07.612Z,0.80
2022-10-05T22:46:35.479Z,0.70
2022-10-05T22:49:02.582Z,0.73
2022-10-05T22:51:29.649Z,0.82
2022-10-05T22:53:56.765Z,0.70
2022-10-05T22:56:23.819Z,0.68
2022-10-05T22:58:51.131Z,0.60
2022-10-05T23:01:20.023Z,0.57
2022-10-05T23:03:47.437Z,0.50
2022-10-05T23:06:20.822Z,0.60
2022-10-05T23:08:48.090Z,0.67
2022-10-05T23:11:23.543Z,0.70
2022-10-05T23:13:52.264Z,0.77
2022-10-05T23:16:23.723Z,0.73
2022-10-05T23:18:53.806Z,0.60
2022-10-05T23:21:23.844Z,0.93
2022-10-05T23:23:51.286Z,0.80
2022-10-05T23:26:23.087Z,0.70
2022-10-05T23:28:50.468Z,0.80
2022-10-05T23:31:22.943Z,0.60
2022-10-05T23:33:51.272Z,0.82
2022-10-05T23:36:22.052Z,0.70
2022-10-05T23:38:49.905Z,0.80
2022-10-05T23:41:19.596Z,0.80
2022-10-05T23:43:47.248Z,0.88
2022-10-05T23:46:14.949Z,1.10
2022-10-05T23:48:42.031Z,0.68
2022-10-05T23:51:11.740Z,0.88
2022-10-05T23:53:38.877Z,1.05
2022-10-05T23:56:06.224Z,0.90
2022-10-05T23:58:33.263Z,1.10
